createdAt,value
2023-09-08T03:40:56.919Z,14.18
2023-09-08T03:44:01.835Z,14.18
2023-09-08T03:47:04.734Z,13.60
2023-09-08T03:50:09.570Z,13.57
2023-09-08T03:53:13.608Z,13.59
2023-09-08T03:56:16.715Z,13.64
2023-09-08T03:59:19.403Z,13.66
2023-09-08T04:02:22.277Z,13.76
2023-09-08T04:05:25.154Z,13.74
2023-09-08T04:08:27.746Z,13.70
2023-09-08T04:11:30.920Z,13.71
2023-09-08T04:14:35.149Z,13.76
2023-09-08T04:17:38.835Z,13.78
2023-09-08T04:20:41.819Z,13.77
2023-09-08T04:23:45.123Z,13.79
2023-09-08T04:26:48.136Z,13.81
2023-09-08T04:29:51.551Z,13.84
2023-09-08T04:32:54.557Z,13.92
2023-09-08T04:35:57.795Z,13.97
2023-09-08T04:39:01.286Z,14.03
2023-09-08T04:42:05.091Z,14.12
2023-09-08T04:45:08.713Z,14.21
2023-09-08T04:48:12.362Z,14.30
2023-09-08T04:51:15.348Z,14.40
2023-09-08T04:54:18.647Z,14.52
2023-09-08T04:57:23.665Z,14.63
2023-09-08T05:00:27.722Z,14.76
2023-09-08T05:03:32.879Z,14.91
2023-09-08T05:06:36.341Z,15.04
2023-09-08T05:09:39.881Z,15.15
2023-09-08T05:12:43.880Z,15.26
2023-09-08T05:15:49.800Z,15.38
2023-09-08T05:18:53.275Z,15.49
2023-09-08T05:21:56.768Z,15.61
2023-09-08T05:25:00.178Z,15.76
2023-09-08T05:28:03.505Z,15.89
2023-09-08T05:31:06.814Z,16.07
2023-09-08T05:34:11.348Z,16.21
2023-09-08T05:37:14.734Z,16.37
2023-09-08T05:40:17.698Z,16.54
2023-09-08T05:43:26.185Z,16.69
2023-09-08T05:46:30.520Z,16.88
2023-09-08T05:49:37.021Z,17.07
2023-09-08T05:52:40.744Z,17.25
2023-09-08T05:55:44.168Z,17.46
2023-09-08T05:58:47.258Z,17.66
2023-09-08T06:01:50.573Z,17.80
2023-09-08T06:04:54.293Z,17.99
2023-09-08T06:08:07.107Z,18.17
2023-09-08T06:11:11.348Z,18.35
2023-09-08T06:14:13.988Z,18.56
2023-09-08T06:17:19.733Z,18.74
2023-09-08T06:20:23.482Z,18.89
2023-09-08T06:23:26.571Z,19.07
2023-09-08T06:26:29.492Z,19.25
2023-09-08T06:29:33.648Z,19.40
2023-09-08T06:32:37.340Z,19.55
2023-09-08T06:35:40.681Z,19.73
2023-09-08T06:38:43.528Z,19.92
2023-09-08T06:41:46.620Z,20.09
2023-09-08T06:44:50.530Z,20.24
2023-09-08T06:47:56.266Z,20.35
2023-09-08T06:51:00.260Z,20.49
2023-09-08T06:54:04.504Z,20.62
2023-09-08T06:57:08.404Z,20.73
2023-09-08T07:00:12.754Z,20.85
2023-09-08T07:03:15.909Z,21.01
2023-09-08T07:06:19.510Z,21.18
2023-09-08T07:09:22.949Z,21.32
2023-09-08T07:12:26.310Z,21.39
2023-09-08T07:15:29.018Z,21.51
2023-09-08T07:18:36.188Z,21.57
2023-09-08T07:21:39.336Z,21.63
2023-09-08T07:24:42.772Z,21.73
2023-09-08T07:27:47.960Z,21.74
2023-09-08T07:30:51.266Z,21.69
2023-09-08T07:33:54.284Z,21.83
2023-09-08T07:36:58.071Z,21.99
2023-09-08T07:40:01.105Z,22.03
2023-09-08T07:43:07.166Z,22.24
2023-09-08T07:46:10.511Z,22.39
2023-09-08T07:49:15.604Z,22.54
2023-09-08T07:52:21.026Z,22.65
2023-09-08T07:55:24.748Z,22.70
2023-09-08T07:58:27.637Z,22.99
2023-09-08T08:01:30.845Z,23.51
2023-09-08T08:04:33.887Z,23.64
2023-09-08T08:07:36.728Z,23.50
2023-09-08T08:10:42.428Z,23.44
2023-09-08T08:14:05.350Z,23.48
2023-09-08T08:17:08.401Z,23.50
2023-09-08T08:20:18.410Z,23.54
2023-09-08T08:23:21.965Z,23.56
2023-09-08T08:26:28.710Z,23.59
2023-09-08T08:29:32.400Z,23.64
2023-09-08T08:32:35.742Z,23.77
2023-09-08T08:35:39.007Z,23.75
2023-09-08T08:38:41.928Z,23.92
2023-09-08T08:41:44.853Z,24.04
2023-09-08T08:44:47.817Z,24.13
2023-09-08T08:47:51.411Z,24.16
2023-09-08T08:50:54.542Z,24.35
2023-09-08T08:53:58.575Z,24.48
2023-09-08T08:57:02.064Z,24.40
2023-09-08T09:00:11.527Z,24.42
2023-09-08T09:03:16.186Z,24.61
2023-09-08T09:06:38.268Z,24.64
2023-09-08T09:09:41.466Z,24.77
2023-09-08T09:12:44.740Z,24.82
2023-09-08T09:15:50.333Z,24.87
2023-09-08T09:19:02.711Z,24.88
2023-09-08T09:22:05.426Z,25.02
2023-09-08T09:25:09.071Z,25.15
2023-09-08T09:28:12.258Z,25.36
2023-09-08T09:31:15.410Z,25.48
2023-09-08T09:34:20.573Z,25.68
2023-09-08T09:37:23.876Z,25.93
2023-09-08T09:40:29.605Z,25.86
2023-09-08T09:43:32.605Z,25.95
2023-09-08T09:46:35.827Z,25.99
2023-09-08T09:49:47.109Z,26.17
2023-09-08T09:52:50.104Z,26.32
2023-09-08T09:55:53.665Z,26.38
2023-09-08T09:58:56.963Z,26.40
2023-09-08T10:02:00.851Z,26.38
2023-09-08T10:05:13.903Z,26.43
2023-09-08T10:08:16.977Z,26.52
2023-09-08T10:11:23.462Z,26.62
2023-09-08T10:14:29.778Z,26.72
2023-09-08T10:17:35.733Z,26.84
2023-09-08T10:20:40.612Z,26.85
2023-09-08T10:23:52.187Z,26.85
2023-09-08T10:27:12.230Z,26.93
2023-09-08T10:30:16.119Z,27.07
2023-09-08T10:33:20.493Z,27.35
2023-09-08T10:36:27.222Z,27.45
2023-09-08T10:39:39.163Z,27.44
2023-09-08T10:42:45.098Z,27.69
2023-09-08T10:45:48.704Z,27.72
2023-09-08T10:48:54.927Z,27.92
2023-09-08T10:52:10.311Z,28.13
2023-09-08T10:55:14.147Z,28.03
2023-09-08T10:58:37.353Z,27.84
2023-09-08T11:01:42.696Z,27.96
2023-09-08T11:04:46.784Z,28.01
2023-09-08T11:07:53.955Z,28.16
2023-09-08T11:10:57.569Z,28.18
2023-09-08T11:14:02.421Z,28.19
2023-09-08T11:17:05.649Z,28.45
2023-09-08T11:20:11.694Z,28.58
2023-09-08T11:23:14.893Z,28.57
2023-09-08T11:26:17.957Z,28.42
2023-09-08T11:29:20.619Z,28.61
2023-09-08T11:32:23.936Z,28.73
2023-09-08T11:35:28.332Z,28.71
2023-09-08T11:38:32.780Z,28.84
2023-09-08T11:41:38.933Z,28.91
2023-09-08T11:44:44.142Z,29.11
2023-09-08T11:47:46.900Z,29.28
2023-09-08T11:50:49.961Z,29.41
2023-09-08T11:53:53.837Z,29.34
2023-09-08T11:56:57.205Z,29.42
2023-09-08T12:00:01.976Z,29.56
2023-09-08T12:03:15.948Z,29.85
2023-09-08T12:06:19.266Z,29.93
2023-09-08T12:09:22.907Z,30.08
2023-09-08T12:12:28.022Z,30.19
2023-09-08T12:15:38.741Z,30.62
2023-09-08T12:18:41.957Z,31.17
2023-09-08T12:22:00.641Z,31.43
2023-09-08T12:25:09.285Z,31.77
2023-09-08T12:28:12.116Z,32.18
2023-09-08T12:31:16.705Z,32.26
2023-09-08T12:34:19.755Z,32.67
2023-09-08T12:37:27.305Z,33.56
2023-09-08T12:40:31.717Z,34.92
2023-09-08T12:43:35.743Z,36.74
2023-09-08T12:46:38.683Z,38.02
2023-09-08T12:49:41.764Z,40.34
2023-09-08T12:52:45.015Z,41.80
2023-09-08T12:55:48.681Z,43.85
2023-09-08T12:58:51.452Z,45.21
2023-09-08T13:01:54.825Z,46.71
2023-09-08T13:04:59.004Z,47.08
2023-09-08T13:08:02.177Z,48.25
2023-09-08T13:11:04.987Z,49.16
2023-09-08T13:14:09.000Z,49.62
2023-09-08T13:17:14.614Z,50.88
2023-09-08T13:20:17.883Z,51.54
2023-09-08T13:23:20.572Z,51.86
2023-09-08T13:26:26.041Z,51.49
2023-09-08T13:29:29.354Z,51.86
2023-09-08T13:32:32.572Z,51.15
2023-09-08T13:35:35.343Z,51.59
2023-09-08T13:38:38.981Z,51.92
2023-09-08T13:41:52.340Z,52.51
2023-09-08T13:44:57.761Z,53.11
2023-09-08T13:48:00.943Z,53.47
2023-09-08T13:51:06.466Z,52.96
2023-09-08T13:54:12.825Z,53.58
2023-09-08T13:57:16.620Z,53.80
2023-09-08T14:00:24.922Z,53.17
2023-09-08T14:03:30.401Z,53.02
2023-09-08T14:06:40.208Z,53.08
2023-09-08T14:09:54.409Z,53.17
2023-09-08T14:12:58.787Z,53.44
2023-09-08T14:16:03.267Z,53.03
2023-09-08T14:19:06.353Z,52.87
2023-09-08T14:22:09.646Z,50.14
2023-09-08T14:25:12.746Z,46.42
2023-09-08T14:28:15.950Z,42.81
2023-09-08T14:31:18.579Z,40.54
2023-09-08T14:34:21.605Z,38.61
2023-09-08T14:37:24.769Z,37.21
2023-09-08T14:40:28.519Z,36.10
2023-09-08T14:43:31.302Z,35.42
2023-09-08T14:46:34.608Z,34.59
2023-09-08T14:49:37.299Z,34.43
2023-09-08T14:52:42.429Z,34.02
2023-09-08T14:55:45.904Z,34.34
2023-09-08T14:58:49.006Z,36.54
2023-09-08T15:01:55.023Z,40.40
2023-09-08T15:04:58.123Z,43.60
2023-09-08T15:08:01.955Z,44.19
2023-09-08T18:01:04.360Z,20.86
2023-09-08T18:04:08.331Z,20.86
2023-09-08T18:07:11.737Z,20.35
2023-09-08T18:10:15.557Z,20.36
2023-09-08T18:13:19.505Z,20.34
2023-09-08T18:16:25.710Z,20.33
